Tropical Cyclones
[Index]
Main Index Home Page Stock Weather Photos Extreme Storms Discussion Storm News and Storm Chasing Reports Tropical Cyclones / Hurricanes / Typhoons Weather Data and Links Wild Fires / Bushfires Weather Observation Techniques Weather Picture Catalogue Tornado Pictures and Reports Stock Video Footage and DVDs for sale
Season 1982-1983 Tropical Cyclone VEENA Track Map
Season 1982-1983 Summaries: [BoM-AU] [JTWC-AU] [JTWC-SIO] [JTWC-SPAC] [JTWC-SH]
<<- Previous TC | JTWC 1982-1983 Season | Next TC ->>

click for intensity scale information  Lat/long Grid: Show Hide

 Date Labels: Show Hide

Joint Typhoon Warning Centre Cyclone Data

Name: VEENA

07 Apr 1983 00:00 UTC to 14 Apr 1983 12:00 UTC

    date/time    lat    long     hPa   cat  kts
1983-04-07 00   10.3   135.6W                 25          
1983-04-07 06   10.6   136.3W                 27          
1983-04-07 12   11.0   137.0W                 30          
1983-04-07 18   11.2   137.7W                 32          
1983-04-08 00   11.4   138.4W                 35          
1983-04-08 06   11.6   139.8W                 37          
1983-04-08 12   11.9   141.8W           1     40          
1983-04-08 18   12.2   143.3W           1     42          
1983-04-09 00   12.5   144.7W           1     45          
1983-04-09 06   12.7   145.5W           1     47          
1983-04-09 12   12.9   146.0W           1     50          
1983-04-09 18   13.0   146.4W           1     53          
1983-04-10 00   13.2   146.8W           2     60          
1983-04-10 06   13.3   147.1W           2     69          
1983-04-10 12   13.5   147.5W           3     79          
1983-04-10 18   13.6   147.7W           3     88          
1983-04-11 00   13.8   148.0W           3     95          
1983-04-11 06   13.9   148.1W           4     98          
1983-04-11 12   14.2   148.3W           4    100          
1983-04-11 18   14.5   148.4W           4    100          
1983-04-12 00   15.1   148.6W           4    100          
1983-04-12 06   15.9   148.7W           3     97          
1983-04-12 12   16.9   149.0W           3     95          
1983-04-12 18   17.7   149.0W           3     92          
1983-04-13 00   18.8   148.2W           3     90          
1983-04-13 06   20.3   146.3W           3     86          
1983-04-13 12   22.2   144.4W           3     80          
1983-04-13 18   23.9   142.6W           2     70          
1983-04-14 00   25.7   140.8W           2     60          
1983-04-14 06   27.6   138.8W           1     50          
1983-04-14 12   29.7   136.8W           1     40          
Winds are 1-min average.

Tropical cyclone tracks developed by Michael Bath using data from the Joint Typhoon Warning Centre Best Tracks and Google Maps.


[Australian Severe Weather index] [Copyright Notice] [Email Contacts] [Search This Site] [Privacy Policy]
Document: tropical_cyclone_veena.htm Updated: 18 September 2016